Wetterdaten: Donnerstag, 04.12.2014
Datum Zeit Temp. A. Feuchte A. Luftdruck Regen Wind Richtung Richtung Sonnenschein ET UV Solar Taupunkt Windchill Windben Empfang
04.12.2014 00:00 2,7 C 81 % 1015,6 hPa 0,0 l/m 11,5 km/h (2 Bft) O 94 0 min 0,000 mm 0,0 UV-I 0 W/m -0,2 C -1,6 C 11,9 km/h (2 Bft) 0,00 %
04.12.2014 00:15 2,7 C 82 % 1015,4 hPa 0,0 l/m 0,7 km/h (0 Bft) O 101 0 min 0,000 mm 0,0 UV-I 0 W/m -0,1 C 2,7 C 4,0 km/h (1 Bft) 0,00 %
04.12.2014 00:30 2,7 C 82 % 1015,3 hPa 0,0 l/m 6,5 km/h (2 Bft) O-SO 107 0 min 0,000 mm 0,0 UV-I 0 W/m -0,1 C 2,6 C 7,9 km/h (2 Bft) 0,00 %
04.12.2014 00:45 2,8 C 82 % 1015,2 hPa 0,0 l/m 1,4 km/h (1 Bft) W-NW 289 0 min 0,000 mm 0,0 UV-I 0 W/m 0,0 C 2,8 C 4,0 km/h (1 Bft) 0,00 %
04.12.2014 01:00 2,8 C 81 % 1015,2 hPa 0,0 l/m 5,4 km/h (1 Bft) O 83 0 min 0,000 mm 0,0 UV-I 0 W/m -0,1 C 2,8 C 7,9 km/h (2 Bft) 0,00 %
04.12.2014 01:15 2,9 C 81 % 1014,9 hPa 0,0 l/m 11,9 km/h (2 Bft) O 92 0 min 0,000 mm 0,0 UV-I 0 W/m -0,0 C -1,6 C 19,8 km/h (3 Bft) 0,00 %
04.12.2014 01:30 3,0 C 81 % 1014,6 hPa 0,0 l/m 2,9 km/h (1 Bft) SO 138 0 min 0,000 mm 0,0 UV-I 0 W/m 0,1 C 3,0 C 4,0 km/h (1 Bft) 0,00 %
04.12.2014 01:45 3,0 C 81 % 1014,8 hPa 0,0 l/m 0,7 km/h (0 Bft) SO 127 0 min 0,000 mm 0,0 UV-I 0 W/m 0,1 C 3,0 C 4,0 km/h (1 Bft) 0,00 %
04.12.2014 02:00 3,1 C 80 % 1014,5 hPa 0,0 l/m 7,2 km/h (2 Bft) S-SO 157 0 min 0,000 mm 0,0 UV-I 0 W/m -0,0 C 2,3 C 11,9 km/h (2 Bft) 0,00 %
04.12.2014 02:15 3,1 C 80 % 1014,3 hPa 0,0 l/m 5,4 km/h (1 Bft) O-NO 77 0 min 0,000 mm 0,0 UV-I 0 W/m -0,0 C 3,1 C 7,9 km/h (2 Bft) 0,00 %
04.12.2014 02:30 3,2 C 80 % 1014,4 hPa 0,0 l/m 9,0 km/h (2 Bft) O-SO 120 0 min 0,000 mm 0,0 UV-I 0 W/m 0,1 C 0,9 C 11,9 km/h (2 Bft) 0,00 %
04.12.2014 02:45 3,2 C 80 % 1014,4 hPa 0,0 l/m 10,8 km/h (2 Bft) O-SO 110 0 min 0,000 mm 0,0 UV-I 0 W/m 0,1 C -0,5 C 11,9 km/h (2 Bft) 0,00 %
04.12.2014 03:00 3,3 C 80 % 1014,2 hPa 0,0 l/m 13,3 km/h (3 Bft) O-SO 106 0 min 0,000 mm 0,0 UV-I 0 W/m 0,2 C -2,0 C 19,8 km/h (3 Bft) 0,00 %
04.12.2014 03:15 3,2 C 80 % 1013,9 hPa 0,0 l/m 4,3 km/h (1 Bft) SO 124 0 min 0,000 mm 0,0 UV-I 0 W/m 0,1 C 3,2 C 7,9 km/h (2 Bft) 0,00 %
04.12.2014 03:30 3,2 C 80 % 1014,0 hPa 0,0 l/m 3,2 km/h (1 Bft) O 98 0 min 0,000 mm 0,0 UV-I 0 W/m 0,1 C 3,2 C 7,9 km/h (2 Bft) 0,00 %
04.12.2014 03:45 3,3 C 80 % 1013,8 hPa 0,0 l/m 5,4 km/h (1 Bft) O-SO 122 0 min 0,000 mm 0,0 UV-I 0 W/m 0,2 C 3,3 C 7,9 km/h (2 Bft) 0,00 %
04.12.2014 04:00 3,3 C 80 % 1013,8 hPa 0,0 l/m 4,3 km/h (1 Bft) N-NW 345 0 min 0,000 mm 0,0 UV-I 0 W/m 0,2 C 3,3 C 11,9 km/h (2 Bft) 0,00 %
04.12.2014 04:15 3,3 C 80 % 1013,6 hPa 0,0 l/m 4,0 km/h (1 Bft) O 92 0 min 0,000 mm 0,0 UV-I 0 W/m 0,2 C 3,3 C 7,9 km/h (2 Bft) 0,00 %
04.12.2014 04:30 3,2 C 80 % 1013,6 hPa 0,0 l/m 3,2 km/h (1 Bft) O-SO 119 0 min 0,000 mm 0,0 UV-I 0 W/m 0,1 C 3,2 C 7,9 km/h (2 Bft) 0,00 %
04.12.2014 04:45 3,3 C 80 % 1013,6 hPa 0,0 l/m 6,5 km/h (2 Bft) O 87 0 min 0,000 mm 0,0 UV-I 0 W/m 0,2 C 3,2 C 11,9 km/h (2 Bft) 0,00 %
04.12.2014 05:00 3,3 C 80 % 1013,5 hPa 0,0 l/m 0,7 km/h (0 Bft) S 186 0 min 0,000 mm 0,0 UV-I 0 W/m 0,2 C 3,3 C 4,0 km/h (1 Bft) 0,00 %
04.12.2014 05:15 3,4 C 79 % 1013,8 hPa 0,0 l/m 2,2 km/h (1 Bft) O 101 0 min 0,000 mm 0,0 UV-I 0 W/m 0,1 C 3,4 C 4,0 km/h (1 Bft) 0,00 %
04.12.2014 05:30 3,5 C 79 % 1013,4 hPa 0,0 l/m 14,0 km/h (3 Bft) O 94 0 min 0,000 mm 0,0 UV-I 0 W/m 0,2 C -2,2 C 15,8 km/h (3 Bft) 0,00 %
04.12.2014 05:45 3,5 C 79 % 1013,3 hPa 0,0 l/m 4,0 km/h (1 Bft) O-NO 67 0 min 0,000 mm 0,0 UV-I 0 W/m 0,2 C 3,5 C 7,9 km/h (2 Bft) 0,00 %
04.12.2014 06:00 3,5 C 79 % 1013,2 hPa 0,0 l/m 11,9 km/h (2 Bft) SO 125 0 min 0,000 mm 0,0 UV-I 0 W/m 0,2 C -0,9 C 15,8 km/h (3 Bft) 0,00 %
04.12.2014 06:15 3,5 C 80 % 1013,2 hPa 0,0 l/m 9,7 km/h (2 Bft) O-NO 62 0 min 0,000 mm 0,0 UV-I 0 W/m 0,4 C 0,6 C 15,8 km/h (3 Bft) 0,00 %
04.12.2014 06:30 3,5 C 79 % 1013,2 hPa 0,0 l/m 6,8 km/h (2 Bft) O-NO 77 0 min 0,000 mm 0,0 UV-I 0 W/m 0,2 C 3,1 C 7,9 km/h (2 Bft) 0,00 %
04.12.2014 06:45 3,5 C 79 % 1012,9 hPa 0,0 l/m 8,3 km/h (2 Bft) O 93 0 min 0,000 mm 0,0 UV-I 0 W/m 0,2 C 1,8 C 11,9 km/h (2 Bft) 0,00 %
04.12.2014 07:00 3,6 C 79 % 1013,0 hPa 0,0 l/m 5,4 km/h (1 Bft) O-SO 105 0 min 0,000 mm 0,0 UV-I 0 W/m 0,3 C 3,6 C 11,9 km/h (2 Bft) 0,00 %
04.12.2014 07:15 3,5 C 79 % 1013,0 hPa 0,0 l/m 14,4 km/h (3 Bft) O-SO 102 0 min 0,000 mm 0,0 UV-I 0 W/m 0,2 C -2,4 C 15,8 km/h (3 Bft) 0,00 %
04.12.2014 07:30 3,5 C 79 % 1012,9 hPa 0,0 l/m 13,3 km/h (3 Bft) O 98 0 min 0,000 mm 0,0 UV-I 0 W/m 0,2 C -1,8 C 15,8 km/h (3 Bft) 0,00 %
04.12.2014 07:45 3,7 C 78 % 1012,9 hPa 0,0 l/m 13,0 km/h (3 Bft) O-SO 104 0 min 0,000 mm 0,0 UV-I 1 W/m 0,2 C -1,4 C 19,8 km/h (3 Bft) 0,00 %
04.12.2014 08:00 3,7 C 78 % 1012,9 hPa 0,0 l/m 11,9 km/h (2 Bft) O-SO 115 0 min 0,000 mm 0,0 UV-I 20 W/m 0,2 C -0,7 C 15,8 km/h (3 Bft) 0,00 %
04.12.2014 08:15 3,9 C 78 % 1012,9 hPa 0,0 l/m 13,0 km/h (3 Bft) O 101 15 min 0,000 mm 0,0 UV-I 43 W/m 0,4 C -1,1 C 15,8 km/h (3 Bft) 0,00 %
04.12.2014 08:30 4,1 C 78 % 1012,9 hPa 0,0 l/m 9,0 km/h (2 Bft) O 79 0 min 0,000 mm 1,0 UV-I 50 W/m 0,6 C 1,8 C 11,9 km/h (2 Bft) 0,00 %
04.12.2014 08:45 4,3 C 76 % 1012,8 hPa 0,0 l/m 7,9 km/h (2 Bft) O 91 0 min 0,000 mm 1,0 UV-I 71 W/m 0,5 C 3,0 C 11,9 km/h (2 Bft) 0,00 %
04.12.2014 09:00 4,6 C 75 % 1012,8 hPa 0,0 l/m 9,0 km/h (2 Bft) O-SO 104 0 min 0,000 mm 1,0 UV-I 81 W/m 0,6 C 2,4 C 11,9 km/h (2 Bft) 0,00 %
04.12.2014 09:15 5,0 C 74 % 1012,6 hPa 0,0 l/m 14,4 km/h (3 Bft) O-SO 103 0 min 0,000 mm 1,0 UV-I 82 W/m 0,8 C -0,6 C 28,1 km/h (4 Bft) 0,00 %
04.12.2014 09:30 5,4 C 72 % 1012,6 hPa 0,0 l/m 16,6 km/h (3 Bft) O 89 0 min 0,000 mm 1,0 UV-I 84 W/m 0,8 C -1,2 C 19,8 km/h (3 Bft) 0,00 %
04.12.2014 09:45 5,4 C 72 % 1012,4 hPa 0,0 l/m 14,4 km/h (3 Bft) O 101 0 min 0,000 mm 1,0 UV-I 92 W/m 0,8 C -0,1 C 19,8 km/h (3 Bft) 0,00 %
04.12.2014 10:00 5,9 C 72 % 1012,6 hPa 0,0 l/m 20,5 km/h (4 Bft) O-SO 103 0 min 0,000 mm 1,0 UV-I 70 W/m 1,2 C -2,2 C 24,1 km/h (4 Bft) 0,00 %
04.12.2014 10:15 5,8 C 72 % 1012,4 hPa 0,0 l/m 6,8 km/h (2 Bft) SO 141 0 min 0,000 mm 1,0 UV-I 64 W/m 1,2 C 5,5 C 11,9 km/h (2 Bft) 0,00 %
04.12.2014 10:30 5,8 C 72 % 1012,6 hPa 0,0 l/m 5,4 km/h (1 Bft) O-SO 119 0 min 0,000 mm 1,0 UV-I 69 W/m 1,2 C 5,8 C 7,9 km/h (2 Bft) 0,00 %
04.12.2014 10:45 5,7 C 72 % 1012,4 hPa 0,0 l/m 7,9 km/h (2 Bft) SO 124 0 min 0,000 mm 1,0 UV-I 70 W/m 1,1 C 4,4 C 11,9 km/h (2 Bft) 0,00 %
04.12.2014 11:00 5,7 C 72 % 1012,4 hPa 0,0 l/m 7,9 km/h (2 Bft) SO 130 0 min 0,000 mm 1,0 UV-I 77 W/m 1,1 C 4,4 C 11,9 km/h (2 Bft) 0,00 %
04.12.2014 11:15 5,8 C 72 % 1012,2 hPa 0,0 l/m 6,5 km/h (2 Bft) O-SO 106 0 min 0,000 mm 1,0 UV-I 90 W/m 1,2 C 5,7 C 15,8 km/h (3 Bft) 0,00 %
04.12.2014 11:30 5,8 C 72 % 1012,1 hPa 0,0 l/m 5,4 km/h (1 Bft) S 182 0 min 0,000 mm 1,0 UV-I 89 W/m 1,2 C 5,8 C 7,9 km/h (2 Bft) 0,00 %
04.12.2014 11:45 6,0 C 72 % 1012,1 hPa 0,0 l/m 4,7 km/h (1 Bft) SO 138 0 min 0,000 mm 1,0 UV-I 113 W/m 1,3 C 6,0 C 7,9 km/h (2 Bft) 0,00 %
04.12.2014 12:00 6,2 C 72 % 1011,9 hPa 0,0 l/m 20,5 km/h (4 Bft) O 92 0 min 0,000 mm 1,0 UV-I 100 W/m 1,5 C -1,8 C 32,0 km/h (5 Bft) 0,00 %
04.12.2014 12:15 6,2 C 72 % 1012,0 hPa 0,0 l/m 6,8 km/h (2 Bft) N-NW 338 0 min 0,000 mm 1,0 UV-I 98 W/m 1,5 C 5,9 C 11,9 km/h (2 Bft) 0,00 %
04.12.2014 12:30 6,2 C 73 % 1012,0 hPa 0,0 l/m 8,3 km/h (2 Bft) O 80 0 min 0,000 mm 1,0 UV-I 64 W/m 1,7 C 4,6 C 19,8 km/h (3 Bft) 0,00 %
04.12.2014 12:45 6,2 C 72 % 1011,7 hPa 0,0 l/m 6,5 km/h (2 Bft) O 91 0 min 0,000 mm 1,0 UV-I 68 W/m 1,5 C 6,1 C 11,9 km/h (2 Bft) 0,00 %
04.12.2014 13:00 6,2 C 72 % 1011,6 hPa 0,0 l/m 4,0 km/h (1 Bft) NO 39 0 min 0,000 mm 1,0 UV-I 42 W/m 1,5 C 6,2 C 7,9 km/h (2 Bft) 0,00 %
04.12.2014 13:15 6,2 C 73 % 1011,7 hPa 0,0 l/m 8,3 km/h (2 Bft) O-SO 121 0 min 0,000 mm 1,0 UV-I 50 W/m 1,7 C 4,6 C 11,9 km/h (2 Bft) 0,00 %
04.12.2014 13:30 6,3 C 73 % 1011,5 hPa 0,0 l/m 6,8 km/h (2 Bft) O 83 0 min 0,000 mm 1,0 UV-I 59 W/m 1,8 C 6,0 C 15,8 km/h (3 Bft) 0,00 %
04.12.2014 13:45 6,3 C 72 % 1011,5 hPa 0,0 l/m 14,0 km/h (3 Bft) O-NO 70 0 min 0,000 mm 1,0 UV-I 46 W/m 1,6 C 1,2 C 19,8 km/h (3 Bft) 0,00 %
04.12.2014 14:00 6,3 C 73 % 1011,4 hPa 0,0 l/m 19,1 km/h (3 Bft) O-SO 105 0 min 0,000 mm 1,0 UV-I 42 W/m 1,8 C -1,1 C 28,1 km/h (4 Bft) 0,00 %
04.12.2014 14:15 6,5 C 71 % 1011,4 hPa 0,0 l/m 7,2 km/h (2 Bft) NO 42 0 min 0,000 mm 1,0 UV-I 47 W/m 1,6 C 5,8 C 11,9 km/h (2 Bft) 0,00 %
04.12.2014 14:30 6,5 C 71 % 1011,6 hPa 0,0 l/m 11,9 km/h (2 Bft) O-SO 119 0 min 0,000 mm 1,0 UV-I 35 W/m 1,6 C 2,5 C 15,8 km/h (3 Bft) 0,00 %
04.12.2014 14:45 6,6 C 71 % 1011,5 hPa 0,0 l/m 2,9 km/h (1 Bft) O-SO 118 0 min 0,000 mm 0,0 UV-I 33 W/m 1,7 C 6,6 C 7,9 km/h (2 Bft) 0,00 %
04.12.2014 15:00 6,6 C 71 % 1011,1 hPa 0,0 l/m 5,8 km/h (2 Bft) S 174 0 min 0,000 mm 0,0 UV-I 28 W/m 1,7 C 6,6 C 11,9 km/h (2 Bft) 0,00 %
04.12.2014 15:15 6,6 C 71 % 1011,2 hPa 0,0 l/m 12,2 km/h (2 Bft) O 101 0 min 0,000 mm 0,0 UV-I 24 W/m 1,7 C 2,5 C 15,8 km/h (3 Bft) 0,00 %
04.12.2014 15:30 6,5 C 71 % 1011,4 hPa 0,0 l/m 4,0 km/h (1 Bft) O 79 0 min 0,000 mm 0,0 UV-I 5 W/m 1,6 C 6,5 C 7,9 km/h (2 Bft) 0,00 %
04.12.2014 15:45 6,3 C 73 % 1011,3 hPa 0,0 l/m 11,5 km/h (2 Bft) O-SO 121 0 min 0,000 mm 0,0 UV-I 0 W/m 1,8 C 2,6 C 19,8 km/h (3 Bft) 0,00 %
04.12.2014 16:00 6,1 C 73 % 1011,1 hPa 0,0 l/m 13,3 km/h (3 Bft) S 182 0 min 0,000 mm 0,0 UV-I 0 W/m 1,6 C 1,3 C 19,8 km/h (3 Bft) 0,00 %
04.12.2014 16:15 5,9 C 73 % 1011,4 hPa 0,0 l/m 15,5 km/h (3 Bft) O 101 0 min 0,000 mm 0,0 UV-I 0 W/m 1,4 C -0,1 C 19,8 km/h (3 Bft) 0,00 %
04.12.2014 16:30 5,7 C 74 % 1011,9 hPa 0,0 l/m 5,8 km/h (2 Bft) N-NO 24 0 min 0,000 mm 0,0 UV-I 0 W/m 1,4 C 5,7 C 11,9 km/h (2 Bft) 0,00 %
04.12.2014 16:45 5,5 C 75 % 1012,0 hPa 0,0 l/m 5,8 km/h (2 Bft) NO 39 0 min 0,000 mm 0,0 UV-I 0 W/m 1,4 C 5,5 C 7,9 km/h (2 Bft) 0,00 %
04.12.2014 17:00 5,3 C 76 % 1012,2 hPa 0,0 l/m 4,3 km/h (1 Bft) S-SO 158 0 min 0,000 mm 0,0 UV-I 0 W/m 1,4 C 5,3 C 7,9 km/h (2 Bft) 0,00 %
04.12.2014 17:15 5,1 C 76 % 1012,3 hPa 0,0 l/m 2,9 km/h (1 Bft) O 99 0 min 0,000 mm 0,0 UV-I 0 W/m 1,2 C 5,1 C 4,0 km/h (1 Bft) 0,00 %
04.12.2014 17:30 4,9 C 77 % 1012,7 hPa 0,0 l/m 0,7 km/h (0 Bft) NO 52 0 min 0,000 mm 0,0 UV-I 0 W/m 1,2 C 4,9 C 4,0 km/h (1 Bft) 0,00 %
04.12.2014 17:45 4,7 C 78 % 1013,0 hPa 0,0 l/m 4,3 km/h (1 Bft) O-SO 110 0 min 0,000 mm 0,0 UV-I 0 W/m 1,2 C 4,7 C 7,9 km/h (2 Bft) 0,00 %
04.12.2014 18:00 4,7 C 78 % 1013,2 hPa 0,0 l/m 1,4 km/h (1 Bft) O-NO 78 0 min 0,000 mm 0,0 UV-I 0 W/m 1,2 C 4,7 C 4,0 km/h (1 Bft) 0,00 %
04.12.2014 18:15 4,7 C 77 % 1013,6 hPa 0,0 l/m 2,9 km/h (1 Bft) S 173 0 min 0,000 mm 0,0 UV-I 0 W/m 1,0 C 4,7 C 7,9 km/h (2 Bft) 0,00 %
04.12.2014 18:30 4,6 C 77 % 1013,5 hPa 0,0 l/m 4,0 km/h (1 Bft) O 91 0 min 0,000 mm 0,0 UV-I 0 W/m 0,9 C 4,6 C 7,9 km/h (2 Bft) 0,00 %
04.12.2014 18:45 4,5 C 78 % 1013,7 hPa 0,0 l/m 4,3 km/h (1 Bft) O 97 0 min 0,000 mm 0,0 UV-I 0 W/m 1,0 C 4,5 C 7,9 km/h (2 Bft) 0,00 %
04.12.2014 19:00 4,4 C 79 % 1013,6 hPa 0,0 l/m 2,2 km/h (1 Bft) O-SO 107 0 min 0,000 mm 0,0 UV-I 0 W/m 1,1 C 4,4 C 4,0 km/h (1 Bft) 0,00 %
04.12.2014 19:15 4,4 C 79 % 1013,8 hPa 0,0 l/m 0,4 km/h (0 Bft) W-SW 251 0 min 0,000 mm 0,0 UV-I 0 W/m 1,1 C 4,4 C 4,0 km/h (1 Bft) 0,00 %
04.12.2014 19:30 4,3 C 79 % 1014,0 hPa 0,0 l/m 0,0 km/h (0 Bft) S 186 0 min 0,000 mm 0,0 UV-I 0 W/m 1,0 C 4,3 C 0,0 km/h (0 Bft) 0,00 %
04.12.2014 19:45 4,2 C 79 % 1014,0 hPa 0,0 l/m 0,0 km/h (0 Bft) S-SW 208 0 min 0,000 mm 0,0 UV-I 0 W/m 0,9 C 4,2 C 0,0 km/h (0 Bft) 0,00 %
04.12.2014 20:00 4,2 C 79 % 1014,1 hPa 0,0 l/m 4,7 km/h (1 Bft) O 89 0 min 0,000 mm 0,0 UV-I 0 W/m 0,9 C 4,2 C 7,9 km/h (2 Bft) 0,00 %
04.12.2014 20:15 4,1 C 80 % 1014,2 hPa 0,0 l/m 1,8 km/h (1 Bft) NO 38 0 min 0,000 mm 0,0 UV-I 0 W/m 1,0 C 4,1 C 4,0 km/h (1 Bft) 0,00 %
04.12.2014 20:30 4,0 C 80 % 1014,4 hPa 0,0 l/m 2,9 km/h (1 Bft) O 96 0 min 0,000 mm 0,0 UV-I 0 W/m 0,9 C 4,0 C 4,0 km/h (1 Bft) 0,00 %
04.12.2014 20:45 3,9 C 80 % 1014,5 hPa 0,0 l/m 0,7 km/h (0 Bft) NO 39 0 min 0,000 mm 0,0 UV-I 0 W/m 0,8 C 3,9 C 4,0 km/h (1 Bft) 0,00 %
04.12.2014 21:00 3,9 C 80 % 1014,5 hPa 0,0 l/m 0,4 km/h (0 Bft) O 85 0 min 0,000 mm 0,0 UV-I 0 W/m 0,8 C 3,9 C 4,0 km/h (1 Bft) 0,00 %
04.12.2014 21:15 3,9 C 81 % 1014,8 hPa 0,0 l/m 0,4 km/h (0 Bft) S 173 0 min 0,000 mm 0,0 UV-I 0 W/m 0,9 C 3,9 C 4,0 km/h (1 Bft) 0,00 %
04.12.2014 21:30 3,9 C 81 % 1014,8 hPa 0,0 l/m 0,0 km/h (0 Bft) S 173 0 min 0,000 mm 0,0 UV-I 0 W/m 0,9 C 3,9 C 0,0 km/h (0 Bft) 0,00 %
04.12.2014 21:45 3,9 C 81 % 1015,1 hPa 0,0 l/m 0,0 km/h (0 Bft) S 178 0 min 0,000 mm 0,0 UV-I 0 W/m 0,9 C 3,9 C 0,0 km/h (0 Bft) 0,00 %
04.12.2014 22:00 3,9 C 81 % 1015,1 hPa 0,0 l/m 0,0 km/h (0 Bft) S 178 0 min 0,000 mm 0,0 UV-I 0 W/m 0,9 C 3,9 C 0,0 km/h (0 Bft) 0,00 %
04.12.2014 22:15 3,9 C 81 % 1015,0 hPa 0,0 l/m 0,0 km/h (0 Bft) S 177 0 min 0,000 mm 0,0 UV-I 0 W/m 0,9 C 3,9 C 0,0 km/h (0 Bft) 0,00 %
04.12.2014 22:30 3,9 C 82 % 1015,2 hPa 0,0 l/m 0,0 km/h (0 Bft) S 174 0 min 0,000 mm 0,0 UV-I 0 W/m 1,1 C 3,9 C 0,0 km/h (0 Bft) 0,00 %
04.12.2014 22:45 3,9 C 82 % 1015,3 hPa 0,0 l/m 0,0 km/h (0 Bft) SO 133 0 min 0,000 mm 0,0 UV-I 0 W/m 1,1 C 3,9 C 0,0 km/h (0 Bft) 0,00 %
04.12.2014 23:00 3,9 C 82 % 1015,6 hPa 0,0 l/m 0,0 km/h (0 Bft) SO 125 0 min 0,000 mm 0,0 UV-I 0 W/m 1,1 C 3,9 C 0,0 km/h (0 Bft) 0,00 %
04.12.2014 23:15 3,8 C 83 % 1015,3 hPa 0,0 l/m 0,0 km/h (0 Bft) S-SW 200 0 min 0,000 mm 0,0 UV-I 0 W/m 1,2 C 3,8 C 0,0 km/h (0 Bft) 0,00 %
04.12.2014 23:30 3,8 C 83 % 1015,4 hPa 0,0 l/m 0,0 km/h (0 Bft) S-SW 194 0 min 0,000 mm 0,0 UV-I 0 W/m 1,2 C 3,8 C 0,0 km/h (0 Bft) 0,00 %
04.12.2014 23:45 3,9 C 82 % 1015,6 hPa 0,0 l/m 0,0 km/h (0 Bft) W-SW 255 0 min 0,000 mm 0,0 UV-I 0 W/m 1,1 C 3,9 C 0,0 km/h (0 Bft) 0,00 %
_ Min-Zeit 00:00 14:15 15:00 - 19:30 - - - - - - 00:00 07:15 19:30 00:00
Minimum _ 2,7 C 71 % 1011,1 hPa - 0,0 km/h (0 Bft) - - - - - - -0,2 C -2,4 C 0,0 km/h (0 Bft) 0,00 %
_ Max-Zeit 14:45 23:15 00:00 00:00 10:00 - - 08:15 00:00 08:30 11:45 13:30 14:45 12:00 00:00
Maximum _ 6,6 C 83 % 1015,6 hPa 0,0 l/m 20,5 km/h
O-SO (4 Bft)
- - 15 min 0,000 mm 1,0 UV-I 113 W/m 1,8 C 6,6 C 32,0 km/h
O (5 Bft)
0,00 %
Durchschnitt _ 4,5 C 77 % 1013,3 hPa #0,0 l/m 6,3 km/h (2 Bft) O - #15 min. #0,000 mm 1,0 UV-I 60 W/m 0,8 C 3,0 C 10,1 km/h (2 Bft) 0,00 %